sensor_id;sensor_type;location;lat;lon;timestamp;pressure;altitude;pressure_sealevel;temperature;humidity
5879;BME280;2965;42.640;23.370;2022-10-16T04:03:07;95210.75;;;7.14;100.00
5879;BME280;2965;42.640;23.370;2022-10-16T04:05:32;95210.97;;;7.20;100.00
5879;BME280;2965;42.640;23.370;2022-10-16T04:07:58;95214.25;;;7.22;100.00
5879;BME280;2965;42.640;23.370;2022-10-16T04:10:23;95209.56;;;7.26;100.00
5879;BME280;2965;42.640;23.370;2022-10-16T04:12:48;95217.38;;;7.26;100.00
5879;BME280;2965;42.640;23.370;2022-10-16T04:15:14;95213.00;;;7.26;100.00
5879;BME280;2965;42.640;23.370;2022-10-16T04:17:39;95213.19;;;7.15;100.00
5879;BME280;2965;42.640;23.370;2022-10-16T04:20:05;95210.59;;;7.15;100.00
5879;BME280;2965;42.640;23.370;2022-10-16T04:22:30;95214.59;;;7.10;100.00
5879;BME280;2965;42.640;23.370;2022-10-16T04:24:56;95214.00;;;7.16;100.00
5879;BME280;2965;42.640;23.370;2022-10-16T04:27:21;95216.47;;;7.17;100.00
5879;BME280;2965;42.640;23.370;2022-10-16T04:29:46;95218.94;;;7.19;100.00
5879;BME280;2965;42.640;23.370;2022-10-16T04:32:12;95227.94;;;7.24;100.00
5879;BME280;2965;42.640;23.370;2022-10-16T04:34:39;95222.97;;;7.31;100.00
5879;BME280;2965;42.640;23.370;2022-10-16T04:37:05;95232.84;;;7.27;100.00
5879;BME280;2965;42.640;23.370;2022-10-16T04:39:30;95234.00;;;7.15;100.00
5879;BME280;2965;42.640;23.370;2022-10-16T04:41:56;95243.06;;;7.11;100.00
5879;BME280;2965;42.640;23.370;2022-10-16T04:44:21;95249.41;;;6.99;100.00
5879;BME280;2965;42.640;23.370;2022-10-16T04:46:49;95252.47;;;6.85;100.00
5879;BME280;2965;42.640;23.370;2022-10-16T04:49:15;95255.47;;;6.90;100.00
5879;BME280;2965;42.640;23.370;2022-10-16T04:51:40;95245.91;;;6.80;100.00
5879;BME280;2965;42.640;23.370;2022-10-16T04:54:05;95253.06;;;6.78;100.00
5879;BME280;2965;42.640;23.370;2022-10-16T04:56:31;95251.13;;;6.80;100.00
5879;BME280;2965;42.640;23.370;2022-10-16T04:58:56;95257.78;;;6.93;100.00
5879;BME280;2965;42.640;23.370;2022-10-16T05:01:21;95256.28;;;7.00;100.00
5879;BME280;2965;42.640;23.370;2022-10-16T05:03:47;95268.88;;;6.95;100.00
5879;BME280;2965;42.640;23.370;2022-10-16T05:06:12;95269.72;;;6.95;100.00
5879;BME280;2965;42.640;23.370;2022-10-16T05:08:38;95273.41;;;6.93;100.00
5879;BME280;2965;42.640;23.370;2022-10-16T05:11:03;95279.25;;;6.95;100.00
5879;BME280;2965;42.640;23.370;2022-10-16T05:13:28;95278.19;;;6.97;100.00
5879;BME280;2965;42.640;23.370;2022-10-16T05:15:54;95277.34;;;6.97;100.00
5879;BME280;2965;42.640;23.370;2022-10-16T05:18:19;95281.97;;;7.03;100.00
5879;BME280;2965;42.640;23.370;2022-10-16T05:20:45;95284.97;;;7.08;100.00
5879;BME280;2965;42.640;23.370;2022-10-16T05:23:10;95288.53;;;7.07;100.00
5879;BME280;2965;42.640;23.370;2022-10-16T05:25:37;95289.97;;;6.92;100.00
5879;BME280;2965;42.640;23.370;2022-10-16T05:28:02;95291.88;;;6.90;100.00
5879;BME280;2965;42.640;23.370;2022-10-16T05:30:28;95293.63;;;6.99;100.00
5879;BME280;2965;42.640;23.370;2022-10-16T05:32:53;95284.19;;;6.98;100.00
5879;BME280;2965;42.640;23.370;2022-10-16T05:35:20;95285.81;;;6.99;100.00
5879;BME280;2965;42.640;23.370;2022-10-16T05:37:46;95283.34;;;7.07;100.00
5879;BME280;2965;42.640;23.370;2022-10-16T05:40:12;95290.47;;;7.05;100.00
5879;BME280;2965;42.640;23.370;2022-10-16T05:42:38;95282.78;;;7.03;100.00
5879;BME280;2965;42.640;23.370;2022-10-16T05:45:05;95279.34;;;7.13;100.00
5879;BME280;2965;42.640;23.370;2022-10-16T05:47:30;95286.53;;;7.28;100.00
5879;BME280;2965;42.640;23.370;2022-10-16T05:49:56;95281.00;;;7.41;100.00
5879;BME280;2965;42.640;23.370;2022-10-16T05:52:21;95286.44;;;7.48;100.00
5879;BME280;2965;42.640;23.370;2022-10-16T05:54:46;95287.22;;;7.58;100.00
5879;BME280;2965;42.640;23.370;2022-10-16T05:57:12;95292.69;;;7.55;100.00
5879;BME280;2965;42.640;23.370;2022-10-16T05:59:37;95294.06;;;7.59;100.00
5879;BME280;2965;42.640;23.370;2022-10-16T06:02:03;95294.81;;;7.69;100.00
5879;BME280;2965;42.640;23.370;2022-10-16T06:04:28;95307.09;;;7.77;100.00
5879;BME280;2965;42.640;23.370;2022-10-16T06:06:58;95307.03;;;7.87;100.00
5879;BME280;2965;42.640;23.370;2022-10-16T06:09:25;95306.16;;;7.96;100.00
5879;BME280;2965;42.640;23.370;2022-10-16T06:11:51;95308.22;;;8.10;100.00
5879;BME280;2965;42.640;23.370;2022-10-16T06:14:16;95313.91;;;8.23;100.00
5879;BME280;2965;42.640;23.370;2022-10-16T06:16:42;95313.03;;;8.32;100.00
5879;BME280;2965;42.640;23.370;2022-10-16T06:19:07;95318.81;;;8.26;100.00
5879;BME280;2965;42.640;23.370;2022-10-16T06:21:34;95326.91;;;8.23;100.00
5879;BME280;2965;42.640;23.370;2022-10-16T06:23:59;95314.94;;;8.30;100.00
5879;BME280;2965;42.640;23.370;2022-10-16T06:26:27;95324.31;;;8.23;100.00
5879;BME280;2965;42.640;23.370;2022-10-16T06:28:57;95328.25;;;8.27;100.00
5879;BME280;2965;42.640;23.370;2022-10-16T06:31:23;95331.19;;;8.24;100.00
5879;BME280;2965;42.640;23.370;2022-10-16T06:33:53;95332.63;;;8.37;100.00
5879;BME280;2965;42.640;23.370;2022-10-16T06:36:19;95339.03;;;8.60;100.00
5879;BME280;2965;42.640;23.370;2022-10-16T06:38:44;95331.97;;;8.78;100.00
5879;BME280;2965;42.640;23.370;2022-10-16T06:41:15;95338.28;;;8.94;100.00
5879;BME280;2965;42.640;23.370;2022-10-16T06:43:41;95336.44;;;9.12;100.00
5879;BME280;2965;42.640;23.370;2022-10-16T06:46:10;95349.06;;;9.25;100.00
5879;BME280;2965;42.640;23.370;2022-10-16T06:48:36;95348.59;;;9.29;100.00
5879;BME280;2965;42.640;23.370;2022-10-16T06:53:31;95359.09;;;9.38;100.00
5879;BME280;2965;42.640;23.370;2022-10-16T06:55:57;95363.38;;;9.39;100.00
5879;BME280;2965;42.640;23.370;2022-10-16T06:58:23;95361.91;;;9.44;100.00
5879;BME280;2965;42.640;23.370;2022-10-16T07:00:48;95365.34;;;9.45;100.00
5879;BME280;2965;42.640;23.370;2022-10-16T07:03:13;95367.31;;;9.51;100.00
5879;BME280;2965;42.640;23.370;2022-10-16T07:05:42;95368.06;;;9.69;100.00
5879;BME280;2965;42.640;23.370;2022-10-16T07:08:08;95372.81;;;9.74;100.00
5879;BME280;2965;42.640;23.370;2022-10-16T07:10:34;95366.53;;;9.93;100.00
5879;BME280;2965;42.640;23.370;2022-10-16T07:13:00;95367.19;;;10.03;100.00
5879;BME280;2965;42.640;23.370;2022-10-16T07:15:26;95359.38;;;10.11;100.00
5879;BME280;2965;42.640;23.370;2022-10-16T07:17:52;95362.41;;;10.32;100.00
5879;BME280;2965;42.640;23.370;2022-10-16T07:20:17;95369.94;;;10.44;100.00
5879;BME280;2965;42.640;23.370;2022-10-16T07:22:43;95370.97;;;10.67;100.00
5879;BME280;2965;42.640;23.370;2022-10-16T07:25:08;95360.44;;;12.19;100.00
5879;BME280;2965;42.640;23.370;2022-10-16T07:27:34;95370.53;;;12.99;100.00
5879;BME280;2965;42.640;23.370;2022-10-16T07:30:00;95376.72;;;13.88;100.00
5879;BME280;2965;42.640;23.370;2022-10-16T07:32:25;95377.34;;;14.56;100.00
5879;BME280;2965;42.640;23.370;2022-10-16T07:34:52;95378.81;;;15.02;100.00
5879;BME280;2965;42.640;23.370;2022-10-16T07:37:17;95396.59;;;15.00;100.00
5879;BME280;2965;42.640;23.370;2022-10-16T07:39:43;95393.59;;;14.09;100.00
5879;BME280;2965;42.640;23.370;2022-10-16T07:42:08;95387.75;;;14.28;100.00
5879;BME280;2965;42.640;23.370;2022-10-16T07:44:33;95386.06;;;14.57;100.00
5879;BME280;2965;42.640;23.370;2022-10-16T07:46:59;95399.22;;;14.78;100.00
5879;BME280;2965;42.640;23.370;2022-10-16T07:49:24;95393.00;;;14.28;100.00
5879;BME280;2965;42.640;23.370;2022-10-16T07:51:50;95394.22;;;14.62;100.00
5879;BME280;2965;42.640;23.370;2022-10-16T07:54:15;95388.81;;;15.13;100.00
5879;BME280;2965;42.640;23.370;2022-10-16T07:56:40;95402.50;;;15.23;100.00
5879;BME280;2965;42.640;23.370;2022-10-16T07:59:06;95394.06;;;15.34;100.00
5879;BME280;2965;42.640;23.370;2022-10-16T08:01:31;95398.63;;;15.19;100.00
5879;BME280;2965;42.640;23.370;2022-10-16T08:03:56;95399.31;;;15.62;100.00
5879;BME280;2965;42.640;23.370;2022-10-16T08:06:22;95395.84;;;15.55;100.00
5879;BME280;2965;42.640;23.370;2022-10-16T08:08:48;95398.47;;;15.83;100.00
5879;BME280;2965;42.640;23.370;2022-10-16T08:11:14;95396.41;;;15.79;100.00
5879;BME280;2965;42.640;23.370;2022-10-16T08:13:40;95403.31;;;15.80;97.66
5879;BME280;2965;42.640;23.370;2022-10-16T08:16:06;95399.41;;;15.20;100.00
5879;BME280;2965;42.640;23.370;2022-10-16T08:18:34;95400.81;;;15.16;100.00
5879;BME280;2965;42.640;23.370;2022-10-16T08:21:00;95391.78;;;15.31;100.00
5879;BME280;2965;42.640;23.370;2022-10-16T08:23:26;95391.75;;;15.53;100.00
5879;BME280;2965;42.640;23.370;2022-10-16T08:25:52;95393.75;;;15.72;100.00
5879;BME280;2965;42.640;23.370;2022-10-16T08:28:18;95394.44;;;15.59;100.00
5879;BME280;2965;42.640;23.370;2022-10-16T08:30:44;95391.25;;;15.64;97.90
5879;BME280;2965;42.640;23.370;2022-10-16T08:33:09;95395.41;;;15.52;100.00
5879;BME280;2965;42.640;23.370;2022-10-16T08:35:35;95385.72;;;15.59;100.00
5879;BME280;2965;42.640;23.370;2022-10-16T08:38:03;95387.53;;;15.86;96.98
5879;BME280;2965;42.640;23.370;2022-10-16T08:40:30;95393.38;;;16.23;100.00
5879;BME280;2965;42.640;23.370;2022-10-16T08:46:20;95393.44;;;16.30;97.72
5879;BME280;2965;42.640;23.370;2022-10-16T08:48:51;95398.44;;;16.18;95.37
5879;BME280;2965;42.640;23.370;2022-10-16T08:51:21;95402.19;;;15.96;95.81
5879;BME280;2965;42.640;23.370;2022-10-16T08:53:57;95392.56;;;16.16;92.74
5879;BME280;2965;42.640;23.370;2022-10-16T08:56:24;95401.09;;;16.18;83.01
5879;BME280;2965;42.640;23.370;2022-10-16T08:58:51;95407.59;;;16.22;85.54
5879;BME280;2965;42.640;23.370;2022-10-16T09:01:19;95411.56;;;16.05;78.63
5879;BME280;2965;42.640;23.370;2022-10-16T09:04:07;95409.53;;;16.07;78.96
5879;BME280;2965;42.640;23.370;2022-10-16T09:06:58;95405.16;;;16.21;78.04
5879;BME280;2965;42.640;23.370;2022-10-16T09:22:48;95394.00;;;17.66;76.97
5879;BME280;2965;42.640;23.370;2022-10-16T09:25:20;95396.03;;;17.97;65.14
5879;BME280;2965;42.640;23.370;2022-10-16T09:27:48;95396.19;;;18.09;63.60
5879;BME280;2965;42.640;23.370;2022-10-16T09:30:20;95395.78;;;18.12;67.59
5879;BME280;2965;42.640;23.370;2022-10-16T09:32:48;95392.03;;;18.39;68.69
5879;BME280;2965;42.640;23.370;2022-10-16T09:35:21;95388.34;;;18.40;67.50
5879;BME280;2965;42.640;23.370;2022-10-16T09:37:49;95387.94;;;18.44;69.12
5879;BME280;2965;42.640;23.370;2022-10-16T09:40:35;95391.28;;;18.71;68.74
5879;BME280;2965;42.640;23.370;2022-10-16T09:43:20;95391.94;;;18.98;65.01
5879;BME280;2965;42.640;23.370;2022-10-16T09:46:00;95397.56;;;19.08;62.14
5879;BME280;2965;42.640;23.370;2022-10-16T09:48:50;95386.50;;;19.42;58.86
5879;BME280;2965;42.640;23.370;2022-10-16T09:51:32;95379.00;;;18.76;54.01
5879;BME280;2965;42.640;23.370;2022-10-16T09:54:20;95377.81;;;18.72;54.46
5879;BME280;2965;42.640;23.370;2022-10-16T09:56:47;95389.53;;;19.21;55.39
5879;BME280;2965;42.640;23.370;2022-10-16T09:59:22;95375.88;;;19.42;58.30
5879;BME280;2965;42.640;23.370;2022-10-16T10:01:54;95369.88;;;19.54;59.09
5879;BME280;2965;42.640;23.370;2022-10-16T10:04:22;95375.78;;;19.81;58.11
5879;BME280;2965;42.640;23.370;2022-10-16T10:06:51;95372.03;;;20.25;53.05
5879;BME280;2965;42.640;23.370;2022-10-16T10:09:23;95371.00;;;20.08;55.50
5879;BME280;2965;42.640;23.370;2022-10-16T10:11:57;95369.78;;;20.40;50.27
5879;BME280;2965;42.640;23.370;2022-10-16T10:14:24;95357.66;;;20.45;54.31
5879;BME280;2965;42.640;23.370;2022-10-16T10:16:52;95360.50;;;20.31;54.40
5879;BME280;2965;42.640;23.370;2022-10-16T10:19:26;95362.47;;;20.36;52.81
5879;BME280;2965;42.640;23.370;2022-10-16T10:21:52;95357.88;;;20.50;52.16
5879;BME280;2965;42.640;23.370;2022-10-16T10:24:19;95358.66;;;19.95;54.11
5879;BME280;2965;42.640;23.370;2022-10-16T10:26:53;95357.31;;;20.23;53.01
5879;BME280;2965;42.640;23.370;2022-10-16T10:32:22;95357.09;;;20.61;48.69
5879;BME280;2965;42.640;23.370;2022-10-16T10:35:06;95354.34;;;20.68;48.89
5879;BME280;2965;42.640;23.370;2022-10-16T10:40:37;95340.06;;;21.46;48.69
5879;BME280;2965;42.640;23.370;2022-10-16T10:45:48;95343.44;;;21.53;48.49
5879;BME280;2965;42.640;23.370;2022-10-16T10:51:09;95332.63;;;21.12;49.06
5879;BME280;2965;42.640;23.370;2022-10-16T10:56:37;95329.16;;;20.70;53.21
5879;BME280;2965;42.640;23.370;2022-10-16T11:02:26;95322.97;;;21.65;43.69
5879;BME280;2965;42.640;23.370;2022-10-16T11:05:16;95314.78;;;22.07;44.58
5879;BME280;2965;42.640;23.370;2022-10-16T11:07:57;95314.78;;;22.47;42.36
5879;BME280;2965;42.640;23.370;2022-10-16T11:13:05;95301.38;;;22.42;44.47
5879;BME280;2965;42.640;23.370;2022-10-16T11:15:38;95311.28;;;22.58;41.99
5879;BME280;2965;42.640;23.370;2022-10-16T11:20:49;95307.94;;;22.11;38.59
5879;BME280;2965;42.640;23.370;2022-10-16T11:23:21;95302.19;;;22.71;38.49
5879;BME280;2965;42.640;23.370;2022-10-16T11:25:49;95309.38;;;22.87;40.37
5879;BME280;2965;42.640;23.370;2022-10-16T11:28:19;95304.69;;;22.78;37.81
5879;BME280;2965;42.640;23.370;2022-10-16T11:30:53;95306.13;;;23.14;39.08
5879;BME280;2965;42.640;23.370;2022-10-16T11:33:28;95305.81;;;23.83;37.96
5879;BME280;2965;42.640;23.370;2022-10-16T11:36:19;95303.09;;;23.61;34.67
5879;BME280;2965;42.640;23.370;2022-10-16T11:39:04;95305.13;;;23.54;36.99
5879;BME280;2965;42.640;23.370;2022-10-16T11:49:46;95298.06;;;24.25;37.49
5879;BME280;2965;42.640;23.370;2022-10-16T11:52:33;95298.56;;;23.78;39.53
5879;BME280;2965;42.640;23.370;2022-10-16T11:55:13;95300.94;;;23.97;35.70
5879;BME280;2965;42.640;23.370;2022-10-16T11:57:46;95300.16;;;23.79;35.78
5879;BME280;2965;42.640;23.370;2022-10-16T12:00:41;95308.13;;;23.96;36.83
5879;BME280;2965;42.640;23.370;2022-10-16T12:06:32;95302.25;;;23.77;36.72
5879;BME280;2965;42.640;23.370;2022-10-16T12:09:00;95292.72;;;24.25;36.33
5879;BME280;2965;42.640;23.370;2022-10-16T12:13:51;95300.53;;;22.99;38.29
5879;BME280;2965;42.640;23.370;2022-10-16T12:18:44;95302.31;;;23.44;39.44
5879;BME280;2965;42.640;23.370;2022-10-16T12:21:12;95298.56;;;23.45;39.24
5879;BME280;2965;42.640;23.370;2022-10-16T12:23:50;95300.66;;;23.76;37.73
5879;BME280;2965;42.640;23.370;2022-10-16T12:26:30;95293.28;;;24.49;38.49
5879;BME280;2965;42.640;23.370;2022-10-16T12:29:13;95291.47;;;24.11;39.60
5879;BME280;2965;42.640;23.370;2022-10-16T12:31:45;95301.78;;;24.02;38.13
5879;BME280;2965;42.640;23.370;2022-10-16T12:34:41;95297.53;;;24.72;39.69
5879;BME280;2965;42.640;23.370;2022-10-16T12:37:11;95304.16;;;24.97;32.83
5879;BME280;2965;42.640;23.370;2022-10-16T12:39:38;95300.75;;;25.33;34.08
5879;BME280;2965;42.640;23.370;2022-10-16T12:42:19;95301.25;;;26.20;35.02
5879;BME280;2965;42.640;23.370;2022-10-16T12:44:45;95297.03;;;26.34;34.06
5879;BME280;2965;42.640;23.370;2022-10-16T12:47:20;95307.56;;;25.94;33.10
5879;BME280;2965;42.640;23.370;2022-10-16T12:49:53;95298.69;;;25.08;34.29
5879;BME280;2965;42.640;23.370;2022-10-16T12:54:56;95300.72;;;25.28;38.26
5879;BME280;2965;42.640;23.370;2022-10-16T13:02:49;95301.47;;;26.76;33.37
5879;BME280;2965;42.640;23.370;2022-10-16T13:14:15;95314.69;;;26.25;34.83
5879;BME280;2965;42.640;23.370;2022-10-16T13:23:09;95300.34;;;26.57;32.62
5879;BME280;2965;42.640;23.370;2022-10-16T13:25:43;95307.94;;;27.06;33.94
5879;BME280;2965;42.640;23.370;2022-10-16T13:28:12;95297.00;;;26.24;35.63
5879;BME280;2965;42.640;23.370;2022-10-16T13:33:14;95309.00;;;26.89;34.19
5879;BME280;2965;42.640;23.370;2022-10-16T13:35:52;95320.28;;;27.68;33.50
5879;BME280;2965;42.640;23.370;2022-10-16T13:38:20;95308.50;;;27.59;32.69
5879;BME280;2965;42.640;23.370;2022-10-16T13:41:12;95315.50;;;27.24;32.22
5879;BME280;2965;42.640;23.370;2022-10-16T13:46:11;95311.38;;;26.03;34.55
5879;BME280;2965;42.640;23.370;2022-10-16T13:48:37;95307.19;;;25.32;34.38
5879;BME280;2965;42.640;23.370;2022-10-16T13:51:15;95312.88;;;25.09;34.34
5879;BME280;2965;42.640;23.370;2022-10-16T13:53:41;95317.94;;;24.34;35.68
5879;BME280;2965;42.640;23.370;2022-10-16T13:56:11;95315.88;;;24.90;34.27
5879;BME280;2965;42.640;23.370;2022-10-16T13:58:37;95312.94;;;25.51;35.23
5879;BME280;2965;42.640;23.370;2022-10-16T14:01:05;95316.03;;;25.75;33.13
5879;BME280;2965;42.640;23.370;2022-10-16T14:03:32;95322.72;;;26.20;34.37
5879;BME280;2965;42.640;23.370;2022-10-16T14:06:03;95319.72;;;26.84;34.12
5879;BME280;2965;42.640;23.370;2022-10-16T14:08:31;95314.88;;;26.76;36.17
5879;BME280;2965;42.640;23.370;2022-10-16T14:10:59;95321.34;;;26.90;32.54
5879;BME280;2965;42.640;23.370;2022-10-16T14:13:43;95330.25;;;27.37;34.42
5879;BME280;2965;42.640;23.370;2022-10-16T14:16:10;95324.88;;;27.16;34.32
5879;BME280;2965;42.640;23.370;2022-10-16T14:18:45;95325.16;;;27.20;33.12
5879;BME280;2965;42.640;23.370;2022-10-16T14:21:13;95328.81;;;26.68;34.35
5879;BME280;2965;42.640;23.370;2022-10-16T14:23:40;95336.91;;;27.04;33.91
5879;BME280;2965;42.640;23.370;2022-10-16T14:26:13;95340.72;;;27.33;32.96
5879;BME280;2965;42.640;23.370;2022-10-16T14:28:39;95340.72;;;27.38;34.22
5879;BME280;2965;42.640;23.370;2022-10-16T14:31:27;95340.72;;;27.33;32.37
5879;BME280;2965;42.640;23.370;2022-10-16T14:33:53;95341.69;;;26.76;33.95
5879;BME280;2965;42.640;23.370;2022-10-16T14:36:18;95329.81;;;26.47;35.13
5879;BME280;2965;42.640;23.370;2022-10-16T14:39:01;95345.25;;;26.92;34.33
5879;BME280;2965;42.640;23.370;2022-10-16T14:41:28;95336.84;;;26.63;35.80
5879;BME280;2965;42.640;23.370;2022-10-16T14:43:56;95340.13;;;26.90;36.35
5879;BME280;2965;42.640;23.370;2022-10-16T14:46:34;95344.44;;;27.02;35.29
5879;BME280;2965;42.640;23.370;2022-10-16T14:49:13;95336.84;;;26.58;32.86
5879;BME280;2965;42.640;23.370;2022-10-16T14:51:41;95345.75;;;25.74;35.25
5879;BME280;2965;42.640;23.370;2022-10-16T14:54:08;95345.59;;;25.16;33.51
5879;BME280;2965;42.640;23.370;2022-10-16T14:56:56;95356.50;;;24.38;35.55
5879;BME280;2965;42.640;23.370;2022-10-16T14:59:42;95351.09;;;23.56;35.95
5879;BME280;2965;42.640;23.370;2022-10-16T15:02:32;95361.84;;;23.44;40.54
5879;BME280;2965;42.640;23.370;2022-10-16T15:05:26;95362.56;;;23.39;39.40
5879;BME280;2965;42.640;23.370;2022-10-16T15:07:52;95360.78;;;23.11;42.19
5879;BME280;2965;42.640;23.370;2022-10-16T15:10:22;95358.94;;;22.55;40.19
5879;BME280;2965;42.640;23.370;2022-10-16T15:12:48;95358.31;;;22.24;42.71
5879;BME280;2965;42.640;23.370;2022-10-16T15:17:43;95365.56;;;21.65;46.16
5879;BME280;2965;42.640;23.370;2022-10-16T15:20:08;95365.69;;;21.28;44.05
5879;BME280;2965;42.640;23.370;2022-10-16T15:22:34;95367.94;;;20.89;47.68
5879;BME280;2965;42.640;23.370;2022-10-16T15:24:59;95372.44;;;20.89;48.67
5879;BME280;2965;42.640;23.370;2022-10-16T15:27:24;95376.88;;;20.65;49.21
5879;BME280;2965;42.640;23.370;2022-10-16T15:29:50;95379.69;;;20.33;48.81
5879;BME280;2965;42.640;23.370;2022-10-16T15:32:15;95376.97;;;20.03;50.95
5879;BME280;2965;42.640;23.370;2022-10-16T15:34:40;95381.31;;;19.98;57.14
5879;BME280;2965;42.640;23.370;2022-10-16T15:37:06;95389.06;;;19.99;57.36
5879;BME280;2965;42.640;23.370;2022-10-16T15:39:31;95394.00;;;19.96;55.36
5879;BME280;2965;42.640;23.370;2022-10-16T15:41:57;95394.59;;;19.79;60.35
5879;BME280;2965;42.640;23.370;2022-10-16T15:44:22;95401.63;;;19.67;60.58
5879;BME280;2965;42.640;23.370;2022-10-16T15:46:50;95397.59;;;19.58;62.47
5879;BME280;2965;42.640;23.370;2022-10-16T15:49:15;95405.03;;;19.49;60.33
5879;BME280;2965;42.640;23.370;2022-10-16T15:51:42;95402.66;;;19.41;59.73
5879;BME280;2965;42.640;23.370;2022-10-16T15:54:08;95411.47;;;19.35;63.30
5879;BME280;2965;42.640;23.370;2022-10-16T15:56:33;95422.28;;;19.33;60.84
5879;BME280;2965;42.640;23.370;2022-10-16T15:58:59;95412.72;;;19.32;63.38
5879;BME280;2965;42.640;23.370;2022-10-16T16:01:26;95416.03;;;18.89;61.97
5879;BME280;2965;42.640;23.370;2022-10-16T16:03:55;95422.63;;;18.80;65.01
5879;BME280;2965;42.640;23.370;2022-10-16T16:06:21;95426.81;;;18.50;64.25
5879;BME280;2965;42.640;23.370;2022-10-16T16:08:49;95426.09;;;18.29;64.62
5879;BME280;2965;42.640;23.370;2022-10-16T16:11:15;95432.28;;;18.03;63.92
5879;BME280;2965;42.640;23.370;2022-10-16T16:13:41;95425.59;;;17.74;67.67
5879;BME280;2965;42.640;23.370;2022-10-16T16:16:11;95436.97;;;17.35;66.67
5879;BME280;2965;42.640;23.370;2022-10-16T16:18:37;95435.53;;;17.06;67.32
5879;BME280;2965;42.640;23.370;2022-10-16T16:21:03;95440.78;;;16.93;69.26
5879;BME280;2965;42.640;23.370;2022-10-16T16:23:30;95447.56;;;16.60;70.54
5879;BME280;2965;42.640;23.370;2022-10-16T16:26:24;95448.59;;;16.18;73.02
5879;BME280;2965;42.640;23.370;2022-10-16T16:28:54;95450.47;;;15.89;76.10
5879;BME280;2965;42.640;23.370;2022-10-16T16:31:24;95456.03;;;15.73;77.37
5879;BME280;2965;42.640;23.370;2022-10-16T16:33:50;95459.94;;;15.56;77.19
5879;BME280;2965;42.640;23.370;2022-10-16T16:36:16;95461.47;;;15.22;78.46
5879;BME280;2965;42.640;23.370;2022-10-16T16:38:43;95468.38;;;15.02;78.49
5879;BME280;2965;42.640;23.370;2022-10-16T16:43:37;95467.03;;;14.55;82.47
5879;BME280;2965;42.640;23.370;2022-10-16T16:46:02;95481.75;;;14.49;83.82
5879;BME280;2965;42.640;23.370;2022-10-16T16:48:28;95487.91;;;14.42;84.23
5879;BME280;2965;42.640;23.370;2022-10-16T16:50:53;95491.28;;;14.35;82.76
5879;BME280;2965;42.640;23.370;2022-10-16T16:53:18;95492.72;;;14.23;84.33
5879;BME280;2965;42.640;23.370;2022-10-16T16:55:44;95496.63;;;13.98;86.10
5879;BME280;2965;42.640;23.370;2022-10-16T16:58:09;95500.97;;;13.91;87.50
5879;BME280;2965;42.640;23.370;2022-10-16T17:00:35;95495.59;;;13.69;87.62
5879;BME280;2965;42.640;23.370;2022-10-16T17:03:00;95507.59;;;13.49;88.34
5879;BME280;2965;42.640;23.370;2022-10-16T17:05:25;95500.97;;;13.38;89.88
5879;BME280;2965;42.640;23.370;2022-10-16T17:07:51;95505.16;;;13.24;91.23
5879;BME280;2965;42.640;23.370;2022-10-16T17:10:16;95505.72;;;13.11;94.18
5879;BME280;2965;42.640;23.370;2022-10-16T17:12:42;95501.69;;;13.84;100.00
5879;BME280;2965;42.640;23.370;2022-10-16T17:15:07;95510.91;;;13.80;99.05
5879;BME280;2965;42.640;23.370;2022-10-16T17:17:33;95522.88;;;13.68;93.26
5879;BME280;2965;42.640;23.370;2022-10-16T17:19:58;95521.16;;;13.37;95.40
5879;BME280;2965;42.640;23.370;2022-10-16T17:22:24;95516.59;;;13.31;96.66
5879;BME280;2965;42.640;23.370;2022-10-16T17:24:50;95512.38;;;13.22;96.46
5879;BME280;2965;42.640;23.370;2022-10-16T17:27:17;95523.59;;;13.16;95.85
5879;BME280;2965;42.640;23.370;2022-10-16T17:29:42;95524.72;;;12.91;97.70
5879;BME280;2965;42.640;23.370;2022-10-16T17:32:08;95525.16;;;12.71;100.00
5879;BME280;2965;42.640;23.370;2022-10-16T17:34:33;95536.41;;;12.49;100.00
5879;BME280;2965;42.640;23.370;2022-10-16T17:36:59;95523.69;;;12.29;100.00
5879;BME280;2965;42.640;23.370;2022-10-16T17:39:25;95522.41;;;12.17;100.00
5879;BME280;2965;42.640;23.370;2022-10-16T17:41:50;95522.75;;;12.14;100.00
5879;BME280;2965;42.640;23.370;2022-10-16T17:44:16;95529.81;;;12.05;100.00
5879;BME280;2965;42.640;23.370;2022-10-16T17:46:49;95533.59;;;12.03;100.00
5879;BME280;2965;42.640;23.370;2022-10-16T17:49:16;95533.63;;;11.62;100.00
5879;BME280;2965;42.640;23.370;2022-10-16T17:51:41;95534.59;;;11.36;100.00
5879;BME280;2965;42.640;23.370;2022-10-16T17:54:07;95537.03;;;11.22;100.00
5879;BME280;2965;42.640;23.370;2022-10-16T17:56:33;95536.56;;;11.26;100.00
5879;BME280;2965;42.640;23.370;2022-10-16T17:58:59;95549.00;;;11.16;100.00
5879;BME280;2965;42.640;23.370;2022-10-16T18:01:28;95542.94;;;11.16;100.00
5879;BME280;2965;42.640;23.370;2022-10-16T18:03:59;95547.34;;;11.15;100.00
5879;BME280;2965;42.640;23.370;2022-10-16T18:06:26;95552.75;;;11.14;100.00
5879;BME280;2965;42.640;23.370;2022-10-16T18:08:52;95549.31;;;11.13;100.00
5879;BME280;2965;42.640;23.370;2022-10-16T18:11:19;95543.09;;;11.14;100.00
5879;BME280;2965;42.640;23.370;2022-10-16T18:13:44;95560.44;;;11.23;100.00
5879;BME280;2965;42.640;23.370;2022-10-16T18:16:11;95552.25;;;11.18;100.00
5879;BME280;2965;42.640;23.370;2022-10-16T18:18:39;95557.50;;;11.18;100.00
5879;BME280;2965;42.640;23.370;2022-10-16T18:21:07;95565.69;;;11.23;100.00
5879;BME280;2965;42.640;23.370;2022-10-16T18:23:34;95572.25;;;11.27;100.00
5879;BME280;2965;42.640;23.370;2022-10-16T18:26:01;95568.00;;;11.34;100.00
5879;BME280;2965;42.640;23.370;2022-10-16T18:28:27;95569.00;;;11.33;100.00
5879;BME280;2965;42.640;23.370;2022-10-16T18:31:01;95576.50;;;11.36;100.00
5879;BME280;2965;42.640;23.370;2022-10-16T18:33:27;95566.53;;;11.40;100.00
5879;BME280;2965;42.640;23.370;2022-10-16T18:35:55;95574.22;;;11.42;100.00
5879;BME280;2965;42.640;23.370;2022-10-16T18:38:21;95570.63;;;11.43;100.00
5879;BME280;2965;42.640;23.370;2022-10-16T18:40:46;95581.13;;;11.43;100.00
5879;BME280;2965;42.640;23.370;2022-10-16T18:43:12;95586.00;;;11.46;100.00
5879;BME280;2965;42.640;23.370;2022-10-16T18:45:37;95584.38;;;11.53;100.00
5879;BME280;2965;42.640;23.370;2022-10-16T18:48:03;95588.50;;;11.47;100.00
5879;BME280;2965;42.640;23.370;2022-10-16T18:50:28;95591.91;;;11.48;100.00